createdAt,value
2018-04-13T00:01:19.274Z,14.03
2018-04-13T00:03:48.356Z,12.33
2018-04-13T00:06:17.400Z,14.80
2018-04-13T00:08:46.489Z,14.80
2018-04-13T00:11:15.572Z,12.50
2018-04-13T00:13:44.608Z,11.37
2018-04-13T00:16:14.447Z,12.97
2018-04-13T00:18:43.503Z,11.27
2018-04-13T00:21:12.615Z,15.07
2018-04-13T00:23:42.411Z,11.77
2018-04-13T00:26:11.502Z,12.03
2018-04-13T00:28:40.625Z,10.80
2018-04-13T00:31:10.430Z,11.17
2018-04-13T00:33:40.244Z,11.90
2018-04-13T00:36:10.098Z,18.80
2018-04-13T00:38:39.131Z,13.07
2018-04-13T00:41:08.186Z,12.73
2018-04-13T00:43:37.280Z,10.83
2018-04-13T00:46:06.329Z,12.13
2018-04-13T00:48:36.142Z,10.83
2018-04-13T00:51:06.145Z,13.33
2018-04-13T00:53:35.217Z,11.50
2018-04-13T00:56:04.249Z,15.87
2018-04-13T00:58:34.097Z,12.57
2018-04-13T01:01:03.146Z,13.20
2018-04-13T01:03:32.967Z,12.30
2018-04-13T01:06:02.863Z,16.37
2018-04-13T01:08:31.903Z,13.63
2018-04-13T01:11:00.955Z,14.07
2018-04-13T01:13:30.791Z,14.23
2018-04-13T01:15:59.836Z,13.97
2018-04-13T01:18:28.882Z,17.23
2018-04-13T01:20:58.165Z,15.63
2018-04-13T01:23:27.982Z,19.20
2018-04-13T01:25:57.792Z,16.50
2018-04-13T01:28:27.610Z,16.20
2018-04-13T01:30:57.425Z,14.17
2018-04-13T01:33:26.479Z,13.23
2018-04-13T01:35:55.518Z,12.43
2018-04-13T01:38:24.696Z,15.60
2018-04-13T01:40:54.523Z,16.00
2018-04-13T01:43:24.331Z,16.53
2018-04-13T01:45:54.171Z,12.20
2018-04-13T01:48:23.225Z,12.40
2018-04-13T01:50:53.032Z,15.10
2018-04-13T01:53:22.299Z,16.40
2018-04-13T01:55:51.349Z,12.97
2018-04-13T01:58:21.153Z,15.80
2018-04-13T02:00:51.024Z,13.80
2018-04-13T02:03:20.076Z,13.50
2018-04-13T02:05:49.126Z,15.40
2018-04-13T02:08:18.239Z,14.77
2018-04-13T02:10:47.277Z,14.93
2018-04-13T02:13:16.327Z,15.23
2018-04-13T02:15:45.424Z,15.20
2018-04-13T02:18:14.460Z,14.80
2018-04-13T02:20:43.511Z,18.63
2018-04-13T02:23:13.375Z,16.13
2018-04-13T02:25:42.430Z,15.97
2018-04-13T02:28:12.236Z,14.30
2018-04-13T02:30:42.094Z,18.47
2018-04-13T02:33:11.193Z,14.87
2018-04-13T02:35:40.241Z,15.80
2018-04-13T02:38:10.122Z,15.70
2018-04-13T02:40:39.184Z,17.47
2018-04-13T02:43:08.227Z,20.30
2018-04-13T02:45:38.111Z,16.70
2018-04-13T02:48:07.185Z,18.23
2018-04-13T02:50:36.233Z,18.20
2018-04-13T02:53:05.321Z,17.63
2018-04-13T02:55:34.646Z,17.30
2018-04-13T02:58:04.487Z,18.37
2018-04-13T03:00:33.584Z,17.80
2018-04-13T03:03:02.657Z,18.77
2018-04-13T03:05:31.688Z,19.87
2018-04-13T03:08:00.870Z,21.07
2018-04-13T03:10:29.930Z,17.20
2018-04-13T03:12:58.994Z,16.73
2018-04-13T03:15:28.090Z,17.13
2018-04-13T03:17:57.149Z,17.37
2018-04-13T03:20:26.209Z,15.87
2018-04-13T03:22:56.052Z,17.43
2018-04-13T03:25:25.096Z,20.97
2018-04-13T03:27:54.158Z,18.30
2018-04-13T03:30:23.284Z,19.47
2018-04-13T03:32:52.340Z,23.17
2018-04-13T03:35:21.404Z,19.87
2018-04-13T03:37:50.479Z,21.27
2018-04-13T03:40:20.298Z,18.40
2018-04-13T03:42:50.110Z,24.33
2018-04-13T03:45:20.035Z,17.27
2018-04-13T03:47:49.861Z,16.10
2018-04-13T03:50:18.911Z,20.13
2018-04-13T03:52:48.016Z,16.13
2018-04-13T03:55:17.831Z,15.80
2018-04-13T03:57:47.945Z,20.80
2018-04-13T04:00:17.797Z,15.77
2018-04-13T04:02:46.848Z,17.87
2018-04-13T04:05:15.904Z,20.27
2018-04-13T04:07:44.988Z,16.20
2018-04-13T04:10:14.043Z,19.90
2018-04-13T04:12:43.863Z,19.17
2018-04-13T04:15:13.716Z,19.87
2018-04-13T04:17:42.765Z,16.50
2018-04-13T04:20:30.703Z,17.10
2018-04-13T04:36:35.609Z,27.27
2018-04-13T04:39:07.290Z,49.97
2018-04-13T04:41:36.760Z,50.47
2018-04-13T04:44:05.877Z,53.67
2018-04-13T04:46:35.852Z,29.23
2018-04-13T04:49:05.716Z,43.63
2018-04-13T04:51:34.875Z,48.10
2018-04-13T04:54:03.929Z,24.87
2018-04-13T04:56:33.025Z,23.27
2018-04-13T04:59:02.136Z,23.40
2018-04-13T05:01:31.192Z,22.70
2018-04-13T05:04:00.285Z,26.10
2018-04-13T05:06:30.101Z,22.60
2018-04-13T05:08:59.172Z,19.70
2018-04-13T05:11:28.213Z,19.70
2018-04-13T05:13:57.276Z,20.40
2018-04-13T05:16:27.108Z,18.00
2018-04-13T05:18:56.151Z,17.13
2018-04-13T05:21:25.192Z,19.67
2018-04-13T05:23:54.297Z,17.90
2018-04-13T05:26:23.359Z,16.50
2018-04-13T05:28:52.401Z,18.10
2018-04-13T05:31:21.475Z,18.17
2018-04-13T05:33:50.541Z,19.37
2018-04-13T05:36:20.372Z,16.80
2018-04-13T05:38:50.251Z,16.67
2018-04-13T05:41:19.301Z,16.57
2018-04-13T05:43:48.355Z,53.30
2018-04-13T05:46:17.432Z,26.70
2018-04-13T05:48:46.470Z,19.50
2018-04-13T05:51:15.543Z,21.50
2018-04-13T05:53:45.394Z,20.30
2018-04-13T05:56:14.444Z,18.43
2018-04-13T05:58:44.252Z,18.57
2018-04-13T06:01:14.260Z,19.57
2018-04-13T06:03:43.317Z,19.03
2018-04-13T06:06:12.362Z,18.97
2018-04-13T06:08:42.228Z,18.57
2018-04-13T06:11:11.278Z,20.30
2018-04-13T06:13:41.093Z,21.20
2018-04-13T06:16:10.184Z,22.97
2018-04-13T06:18:40.006Z,18.50
2018-04-13T06:21:09.055Z,19.87
2018-04-13T06:23:38.238Z,18.83
2018-04-13T06:26:07.279Z,22.43
2018-04-13T06:28:37.118Z,18.33
2018-04-13T06:31:06.230Z,23.03
2018-04-13T06:33:35.286Z,24.83
2018-04-13T06:36:05.095Z,18.00
2018-04-13T06:38:34.979Z,20.40
2018-04-13T06:41:04.026Z,19.53
2018-04-13T06:43:33.071Z,21.13
2018-04-13T06:46:02.259Z,20.63
2018-04-13T06:48:31.296Z,24.07
2018-04-13T06:51:00.343Z,29.03
2018-04-13T06:53:29.432Z,24.07
2018-04-13T06:55:58.492Z,22.10
2018-04-13T06:58:27.557Z,23.20
2018-04-13T07:00:57.423Z,24.87
2018-04-13T07:03:26.683Z,30.23
2018-04-13T07:05:56.494Z,25.20
2018-04-13T07:08:26.308Z,24.83
2018-04-13T07:10:56.122Z,88.57
2018-04-13T07:13:25.261Z,39.50
2018-04-13T07:15:54.296Z,26.57
2018-04-13T07:18:24.112Z,29.57
2018-04-13T07:20:53.971Z,29.73
2018-04-13T07:23:23.016Z,25.17
2018-04-13T07:25:52.820Z,25.10
2018-04-13T07:28:21.920Z,23.67
2018-04-13T07:30:51.735Z,27.93
2018-04-13T07:33:21.549Z,37.03
2018-04-13T07:35:51.356Z,47.30
2018-04-13T07:38:21.171Z,40.40
2018-04-13T07:40:50.228Z,27.57
2018-04-13T07:43:19.261Z,29.53
2018-04-13T07:45:49.124Z,29.70
2018-04-13T07:48:18.247Z,29.10
2018-04-13T07:50:47.986Z,26.33
2018-04-13T07:53:17.841Z,25.90
2018-04-13T07:55:46.892Z,25.53
2018-04-13T07:58:16.701Z,83.37
2018-04-13T08:00:46.646Z,36.63
2018-04-13T08:03:15.704Z,26.77
2018-04-13T08:05:45.773Z,26.97
2018-04-13T08:08:14.862Z,24.73
2018-04-13T08:10:44.227Z,25.33
2018-04-13T08:13:13.994Z,26.47
2018-04-13T08:15:42.936Z,28.17
2018-04-13T08:18:12.757Z,31.17
2018-04-13T08:20:41.851Z,28.83
2018-04-13T08:23:10.899Z,27.17
2018-04-13T08:25:39.944Z,26.53
2018-04-13T08:28:09.144Z,98.53
2018-04-13T08:30:38.238Z,51.27
2018-04-13T08:33:08.032Z,31.30
2018-04-13T08:35:37.890Z,28.90
2018-04-13T08:38:06.925Z,26.60
2018-04-13T08:40:35.965Z,26.17
2018-04-13T08:43:05.150Z,27.60
2018-04-13T08:45:34.199Z,27.40
2018-04-13T08:48:03.252Z,28.07
2018-04-13T08:50:32.330Z,26.50
2018-04-13T08:53:01.374Z,30.30
2018-04-13T08:55:30.444Z,30.80
2018-04-13T08:57:59.659Z,34.93
2018-04-13T09:00:28.781Z,35.53
2018-04-13T09:02:57.805Z,30.97
2018-04-13T09:05:26.888Z,29.87
2018-04-13T09:07:57.078Z,29.53
2018-04-13T09:10:26.113Z,31.07
2018-04-13T09:12:55.259Z,27.83
2018-04-13T09:15:24.285Z,26.80
2018-04-13T09:17:54.114Z,39.87
2018-04-13T09:20:23.220Z,35.87
2018-04-13T09:22:52.279Z,23.50
2018-04-13T09:25:22.115Z,24.33
2018-04-13T09:27:51.945Z,24.13
2018-04-13T09:30:20.997Z,23.20
2018-04-13T09:32:50.089Z,22.60
2018-04-13T09:35:19.151Z,28.23
2018-04-13T09:37:48.203Z,25.53
2018-04-13T09:40:17.276Z,26.00
2018-04-13T09:42:46.336Z,25.30
2018-04-13T09:45:15.426Z,26.57
2018-04-13T09:47:44.494Z,26.33
2018-04-13T09:50:13.582Z,30.30
2018-04-13T09:52:42.635Z,43.83
2018-04-13T09:55:11.785Z,46.60
2018-04-13T09:57:40.843Z,30.03
2018-04-13T10:00:11.018Z,29.43
2018-04-13T10:02:40.128Z,26.10
2018-04-13T10:05:15.444Z,28.67
2018-04-13T10:07:44.529Z,32.33
2018-04-13T10:10:13.637Z,32.27
2018-04-13T10:12:42.720Z,29.30
2018-04-13T10:15:11.789Z,26.27
2018-04-13T10:17:41.646Z,28.47
2018-04-13T10:20:10.775Z,28.37
2018-04-13T10:22:40.562Z,26.90
2018-04-13T10:25:09.638Z,25.97
2018-04-13T10:27:39.528Z,29.00
2018-04-13T10:30:08.618Z,28.07
2018-04-13T10:32:38.428Z,30.73
2018-04-13T10:35:08.279Z,26.77
2018-04-13T10:37:37.333Z,26.83
2018-04-13T10:40:08.376Z,25.93
2018-04-13T10:42:37.625Z,29.20
2018-04-13T10:45:06.682Z,26.20
2018-04-13T10:47:35.756Z,26.67
2018-04-13T10:50:05.596Z,40.17
2018-04-13T10:52:34.691Z,53.07
2018-04-13T10:55:03.765Z,31.47
2018-04-13T10:57:32.807Z,27.30
2018-04-13T11:00:01.877Z,24.73
2018-04-13T11:02:30.960Z,27.13
2018-04-13T11:05:01.082Z,25.87
2018-04-13T11:07:30.158Z,23.90
2018-04-13T11:09:59.960Z,25.20
2018-04-13T11:12:29.811Z,23.20
2018-04-13T11:14:59.800Z,22.63
2018-04-13T11:17:29.665Z,21.77
2018-04-13T11:19:58.773Z,23.60
2018-04-13T11:22:27.859Z,23.57
2018-04-13T11:24:56.926Z,22.10
2018-04-13T11:27:26.064Z,25.07
2018-04-13T11:29:55.106Z,22.30
2018-04-13T11:32:24.193Z,25.20
2018-04-13T11:34:54.009Z,20.80
2018-04-13T11:37:23.060Z,21.47
2018-04-13T11:39:52.123Z,18.57
2018-04-13T11:42:21.175Z,38.77
2018-04-13T11:44:51.014Z,22.60
2018-04-13T11:47:20.065Z,18.80
2018-04-13T11:49:49.260Z,20.03
2018-04-13T11:52:18.310Z,16.47
2018-04-13T11:54:47.383Z,19.20
2018-04-13T11:57:16.480Z,17.00
2018-04-13T11:59:45.533Z,20.40
2018-04-13T12:02:14.622Z,15.97
2018-04-13T12:04:43.716Z,18.67
2018-04-13T12:07:12.810Z,16.53
2018-04-13T12:09:41.888Z,18.77
2018-04-13T12:12:10.934Z,18.97
2018-04-13T12:14:41.716Z,17.77
2018-04-13T12:17:10.803Z,26.00
2018-04-13T12:19:39.850Z,22.57
2018-04-13T12:22:09.739Z,18.13
2018-04-13T12:24:38.853Z,20.37
2018-04-13T12:27:07.985Z,18.40
2018-04-13T12:29:37.032Z,16.27
2018-04-13T12:32:06.658Z,14.40
2018-04-13T12:34:35.725Z,15.40
2018-04-13T12:37:05.726Z,16.20
2018-04-13T12:39:34.793Z,16.07
2018-04-13T12:42:04.641Z,19.37
2018-04-13T12:44:33.724Z,13.70
2018-04-13T12:47:02.781Z,16.90
2018-04-13T12:49:31.855Z,15.37
2018-04-13T12:52:00.961Z,16.07
2018-04-13T12:54:30.148Z,17.17
2018-04-13T12:56:59.237Z,22.70
2018-04-13T12:59:28.348Z,17.90
2018-04-13T13:01:57.866Z,13.03
2018-04-13T13:04:27.700Z,14.83
2018-04-13T13:06:56.769Z,16.13
2018-04-13T13:09:25.839Z,13.40
2018-04-13T13:11:54.952Z,13.33
2018-04-13T13:14:24.019Z,14.30
2018-04-13T13:16:53.090Z,14.27
2018-04-13T13:19:22.190Z,16.20
2018-04-13T13:21:51.401Z,14.83
2018-04-13T13:24:20.515Z,13.90
2018-04-13T13:27:10.783Z,14.80
2018-04-13T13:32:20.552Z,14.33
2018-04-13T13:34:50.091Z,15.43
2018-04-13T13:37:21.656Z,17.07
2018-04-13T13:39:51.556Z,16.00
2018-04-13T13:42:20.590Z,14.23
2018-04-13T13:44:49.790Z,19.57
2018-04-13T13:47:19.875Z,14.67
2018-04-13T13:49:50.583Z,18.20
2018-04-13T13:52:20.390Z,13.10
2018-04-13T13:54:49.771Z,13.80
2018-04-13T13:57:18.847Z,18.63
2018-04-13T13:59:48.881Z,16.53
2018-04-13T14:02:19.826Z,13.17
2018-04-13T14:04:48.866Z,15.70
2018-04-13T14:07:18.705Z,14.03
2018-04-13T14:09:47.904Z,16.37
2018-04-13T14:12:17.106Z,13.63
2018-04-13T14:14:46.321Z,12.17
2018-04-13T14:17:17.841Z,23.20
2018-04-13T14:19:47.723Z,16.53
2018-04-13T14:22:17.853Z,18.40
2018-04-13T14:24:47.216Z,12.87
2018-04-13T14:27:16.499Z,13.23
2018-04-13T14:29:45.781Z,12.73
2018-04-13T14:32:15.095Z,17.90
2018-04-13T14:34:44.333Z,10.07
2018-04-13T14:37:13.667Z,14.67
2018-04-13T14:39:43.654Z,11.07
2018-04-13T14:42:12.904Z,12.00
2018-04-13T14:44:42.226Z,9.90
2018-04-13T14:47:11.554Z,17.30
2018-04-13T14:49:40.914Z,13.97
2018-04-13T14:52:10.184Z,11.77
2018-04-13T14:54:40.216Z,12.87
2018-04-13T14:57:09.594Z,11.23
2018-04-13T14:59:39.204Z,21.83
2018-04-13T15:02:09.422Z,11.93
2018-04-13T15:04:38.674Z,10.77
2018-04-13T15:07:08.007Z,11.60
2018-04-13T15:09:37.295Z,14.20
2018-04-13T15:12:06.783Z,11.23
2018-04-13T15:14:36.108Z,12.53
2018-04-13T15:17:05.548Z,11.87
2018-04-13T15:19:35.631Z,16.20
2018-04-13T15:22:04.897Z,14.00
2018-04-13T15:24:34.201Z,14.63
2018-04-13T15:27:03.519Z,18.33
2018-04-13T15:29:33.584Z,8.97
2018-04-13T15:32:03.725Z,16.53
2018-04-13T15:34:33.001Z,13.33
2018-04-13T15:37:03.076Z,6.97
2018-04-13T15:39:33.258Z,9.27
2018-04-13T15:42:02.576Z,7.40
2018-04-13T15:44:32.226Z,8.80
2018-04-13T15:47:01.553Z,13.80
2018-04-13T15:49:31.947Z,21.30
2018-04-13T15:52:01.283Z,9.13
2018-04-13T15:54:30.597Z,10.33
2018-04-13T15:56:59.882Z,26.97
2018-04-13T15:59:29.186Z,7.60
2018-04-13T16:01:58.673Z,7.83
2018-04-13T16:04:28.746Z,5.87
2018-04-13T16:06:58.039Z,3.87
2018-04-13T16:09:27.393Z,6.07
2018-04-13T16:11:57.509Z,8.87
2018-04-13T16:14:27.642Z,9.83
2018-04-13T16:16:57.038Z,28.10
2018-04-13T16:19:27.131Z,9.53
2018-04-13T16:21:56.473Z,5.03
2018-04-13T16:24:25.793Z,3.43
2018-04-13T16:26:55.119Z,4.30
2018-04-13T16:29:24.499Z,4.70
2018-04-13T16:31:54.711Z,5.57
2018-04-13T16:34:24.103Z,5.70
2018-04-13T16:36:53.467Z,6.90
2018-04-13T16:39:22.789Z,10.03
2018-04-13T16:41:52.890Z,4.90
2018-04-13T16:44:22.661Z,7.90
2018-04-13T16:46:51.985Z,6.50
2018-04-13T16:49:21.331Z,6.40
2018-04-13T16:51:50.666Z,6.20
2018-04-13T16:54:20.014Z,5.20
2018-04-13T16:56:50.146Z,3.50
2018-04-13T16:59:21.204Z,9.63
2018-04-13T17:01:50.570Z,27.13
2018-04-13T17:04:19.896Z,9.17
2018-04-13T17:06:49.233Z,5.70
2018-04-13T17:09:18.583Z,5.80
2018-04-13T17:11:48.705Z,6.67
2018-04-13T17:14:18.796Z,3.50
2018-04-13T17:16:48.326Z,5.30
2018-04-13T17:19:18.433Z,4.63
2018-04-13T17:21:48.599Z,5.13
2018-04-13T17:24:17.923Z,4.30
2018-04-13T17:26:47.304Z,10.03
2018-04-13T17:29:16.702Z,6.33
2018-04-13T17:31:46.035Z,5.30
2018-04-13T17:34:15.426Z,3.73
2018-04-13T17:36:44.809Z,4.43
2018-04-13T17:39:15.099Z,4.90
2018-04-13T17:41:44.504Z,6.77
2018-04-13T17:44:14.661Z,7.30
2018-04-13T17:46:48.826Z,5.47
2018-04-13T17:49:19.929Z,7.40
2018-04-13T17:51:49.287Z,8.27
2018-04-13T17:54:18.615Z,6.30
2018-04-13T17:56:47.991Z,6.57
2018-04-13T17:59:17.323Z,7.03
2018-04-13T18:01:46.686Z,19.80
2018-04-13T18:04:16.173Z,13.30
2018-04-13T18:06:45.507Z,12.77
2018-04-13T18:09:14.829Z,12.17
2018-04-13T18:11:44.185Z,8.53
2018-04-13T18:14:13.559Z,15.00
2018-04-13T18:16:42.899Z,11.53
2018-04-13T18:19:12.451Z,11.70
2018-04-13T18:21:42.407Z,12.37
2018-04-13T18:24:12.666Z,12.00
2018-04-13T18:26:42.074Z,10.40
2018-04-13T18:29:11.423Z,14.73
2018-04-13T18:31:41.535Z,11.80
2018-04-13T18:34:10.901Z,12.93
2018-04-13T18:36:40.459Z,9.97
2018-04-13T18:39:10.546Z,9.80
2018-04-13T18:41:41.425Z,14.00
2018-04-13T18:44:10.803Z,12.53
2018-04-13T18:46:40.211Z,16.60
2018-04-13T18:49:09.562Z,13.80
2018-04-13T18:51:38.906Z,11.40
2018-04-13T18:54:08.286Z,11.50
2018-04-13T18:56:37.633Z,11.07
2018-04-13T18:59:08.590Z,16.97
2018-04-13T19:01:38.013Z,16.57
2018-04-13T19:04:07.354Z,15.33
2018-04-13T19:06:36.718Z,15.43
2018-04-13T19:09:06.762Z,15.97
2018-04-13T19:11:36.108Z,13.13
2018-04-13T19:14:06.047Z,14.03
2018-04-13T19:16:35.386Z,18.80
2018-04-13T19:19:04.719Z,14.67
2018-04-13T19:21:35.220Z,12.90
2018-04-13T19:24:04.534Z,12.00
2018-04-13T19:26:33.920Z,11.40
2018-04-13T19:29:03.269Z,8.90
2018-04-13T19:31:32.648Z,13.33
2018-04-13T19:34:02.042Z,9.97
2018-04-13T19:36:32.290Z,9.40
2018-04-13T19:39:01.636Z,8.07
2018-04-13T19:41:30.969Z,7.93
2018-04-13T19:44:01.103Z,10.20
2018-04-13T19:46:30.461Z,9.87
2018-04-13T19:48:59.790Z,8.60
2018-04-13T19:51:30.929Z,8.00
2018-04-13T19:54:01.035Z,8.53
2018-04-13T19:56:31.178Z,7.93
2018-04-13T19:59:00.525Z,7.70
2018-04-13T20:01:29.880Z,11.80
2018-04-13T20:03:59.247Z,8.33
2018-04-13T20:06:28.581Z,8.50
2018-04-13T20:08:58.499Z,11.10
2018-04-13T20:11:27.840Z,10.47
2018-04-13T20:13:58.936Z,9.07
2018-04-13T20:16:29.063Z,7.30
2018-04-13T20:18:59.844Z,8.53
2018-04-13T20:21:29.182Z,7.90
2018-04-13T20:23:58.643Z,13.03
2018-04-13T20:26:27.969Z,7.53
2018-04-13T20:28:57.327Z,8.97
2018-04-13T20:31:26.658Z,8.47
2018-04-13T20:33:55.987Z,10.73
2018-04-13T20:36:26.225Z,10.67
2018-04-13T20:38:56.323Z,8.53
2018-04-13T20:41:25.694Z,8.70
2018-04-13T20:43:55.062Z,10.00
2018-04-13T20:46:24.368Z,10.30
2018-04-13T20:48:53.695Z,8.60
2018-04-13T20:51:23.017Z,8.53
2018-04-13T20:53:52.372Z,9.07
2018-04-13T20:56:21.699Z,10.63
2018-04-13T20:58:51.089Z,8.30
2018-04-13T21:01:21.273Z,10.30
2018-04-13T21:03:51.993Z,13.90
2018-04-13T21:06:22.057Z,10.07
2018-04-13T21:08:51.410Z,9.23
2018-04-13T21:11:20.837Z,11.17
2018-04-13T21:13:50.145Z,9.87
2018-04-13T21:16:19.479Z,11.93
2018-04-13T21:18:48.792Z,13.03
2018-04-13T21:21:18.070Z,7.73
2018-04-13T21:23:47.371Z,13.60
2018-04-13T21:26:16.827Z,13.20
2018-04-13T21:28:46.911Z,9.43
2018-04-13T21:31:16.135Z,10.17
2018-04-13T21:33:46.112Z,12.33
2018-04-13T21:36:15.351Z,8.67
2018-04-13T21:38:45.306Z,8.43
2018-04-13T21:41:14.379Z,8.00
2018-04-13T21:43:43.477Z,10.70
2018-04-13T21:46:12.572Z,12.50
2018-04-13T21:48:41.612Z,8.80
2018-04-13T21:51:10.661Z,13.97
2018-04-13T21:53:39.825Z,11.90
2018-04-13T21:56:08.812Z,10.43
2018-04-13T21:58:38.616Z,10.90
2018-04-13T22:01:08.522Z,8.50
2018-04-13T22:03:37.488Z,10.23
2018-04-13T22:06:06.534Z,10.43
2018-04-13T22:08:36.401Z,8.40
2018-04-13T22:11:05.449Z,12.23
2018-04-13T22:13:35.252Z,10.50
2018-04-13T22:16:04.317Z,8.80
2018-04-13T22:18:33.375Z,11.67
2018-04-13T22:21:02.405Z,10.07
2018-04-13T22:23:31.513Z,10.57
2018-04-13T22:26:00.532Z,14.63
2018-04-13T22:28:29.858Z,6.80
2018-04-13T22:30:58.924Z,9.43
2018-04-13T22:33:27.977Z,10.00
2018-04-13T22:35:57.022Z,7.83
2018-04-13T22:38:26.076Z,7.07
2018-04-13T22:40:55.104Z,9.27
2018-04-13T22:43:24.148Z,8.53
2018-04-13T22:45:53.330Z,9.67
2018-04-13T22:48:22.364Z,11.60
2018-04-13T22:50:52.180Z,8.60
2018-04-13T22:53:21.996Z,8.10
2018-04-13T22:55:51.801Z,8.20
2018-04-13T22:58:20.837Z,10.90
2018-04-13T23:00:49.873Z,10.33
2018-04-13T23:03:19.050Z,10.63
2018-04-13T23:05:48.072Z,9.50
2018-04-13T23:08:17.104Z,9.80
2018-04-13T23:10:46.291Z,12.13
2018-04-13T23:13:15.333Z,8.60
2018-04-13T23:15:44.371Z,12.40
2018-04-13T23:18:14.260Z,10.20
2018-04-13T23:20:43.305Z,9.63
2018-04-13T23:23:12.363Z,8.30
2018-04-13T23:25:41.442Z,10.87
2018-04-13T23:28:10.480Z,8.43
2018-04-13T23:30:39.588Z,9.73
2018-04-13T23:33:08.651Z,7.43
2018-04-13T23:35:37.702Z,8.17
2018-04-13T23:38:06.747Z,12.00
2018-04-13T23:40:35.815Z,9.97
2018-04-13T23:43:04.849Z,9.20
2018-04-13T23:45:33.901Z,8.67
2018-04-13T23:48:03.008Z,7.17
2018-04-13T23:50:32.808Z,11.60
2018-04-13T23:53:01.857Z,9.13
2018-04-13T23:55:31.002Z,10.03
2018-04-13T23:58:00.078Z,9.07
